createdAt,value
2022-12-04T00:01:28.988Z,6.42
2022-12-04T00:04:00.128Z,6.48
2022-12-04T00:06:28.827Z,6.51
2022-12-04T00:08:57.845Z,6.53
2022-12-04T00:11:29.749Z,6.60
2022-12-04T00:14:06.094Z,6.64
2022-12-04T00:16:35.844Z,6.62
2022-12-04T00:19:04.303Z,6.60
2022-12-04T00:21:32.420Z,6.59
2022-12-04T00:24:00.252Z,6.51
2022-12-04T00:26:31.139Z,6.45
2022-12-04T00:28:59.203Z,6.44
2022-12-04T00:31:29.732Z,6.44
2022-12-04T00:33:58.531Z,6.44
2022-12-04T00:36:29.514Z,6.46
2022-12-04T00:38:58.719Z,6.47
2022-12-04T00:41:28.963Z,6.48
2022-12-04T00:43:56.601Z,6.47
2022-12-04T00:46:24.566Z,6.41
2022-12-04T00:48:52.865Z,6.38
2022-12-04T00:51:25.146Z,6.33
2022-12-04T00:53:53.259Z,6.31
2022-12-04T00:56:25.970Z,6.26
2022-12-04T00:58:56.820Z,6.20
2022-12-04T01:01:26.445Z,6.21
2022-12-04T01:03:55.433Z,6.25
2022-12-04T01:06:33.950Z,6.28
2022-12-04T01:09:04.627Z,6.29
2022-12-04T01:11:33.928Z,6.28
2022-12-04T01:14:02.006Z,6.29
2022-12-04T01:16:36.949Z,6.31
2022-12-04T01:19:07.747Z,6.32
2022-12-04T01:21:37.475Z,6.37
2022-12-04T01:24:05.874Z,6.47
2022-12-04T01:26:33.792Z,6.62
2022-12-04T01:29:01.838Z,6.79
2022-12-04T01:31:30.249Z,6.81
2022-12-04T01:33:58.500Z,6.94
2022-12-04T01:36:28.865Z,6.98
2022-12-04T01:38:56.674Z,7.05
2022-12-04T01:41:30.874Z,7.09
2022-12-04T01:44:11.576Z,7.15
2022-12-04T01:46:41.877Z,7.13
2022-12-04T01:49:37.543Z,7.18
2022-12-04T01:52:21.586Z,7.15
2022-12-04T01:54:59.613Z,7.11
2022-12-04T01:57:32.488Z,7.06
2022-12-04T02:00:07.695Z,7.07
2022-12-04T02:02:41.330Z,7.11
2022-12-04T02:05:13.363Z,7.14
2022-12-04T02:07:45.282Z,7.17
2022-12-04T02:10:14.023Z,7.24
2022-12-04T02:13:09.101Z,7.34
2022-12-04T02:16:06.305Z,7.31
2022-12-04T02:19:38.231Z,7.19
2022-12-04T02:22:28.504Z,7.15
2022-12-04T02:25:24.475Z,7.18
2022-12-04T02:28:23.927Z,7.25
2022-12-04T02:30:59.238Z,7.28
2022-12-04T02:33:37.270Z,7.25
2022-12-04T02:36:20.930Z,7.22
2022-12-04T02:39:02.721Z,7.26
2022-12-04T02:41:44.249Z,7.20
2022-12-04T02:44:28.041Z,7.15
2022-12-04T02:47:05.696Z,7.17
2022-12-04T02:49:45.666Z,7.13
2022-12-04T02:52:21.301Z,7.16
2022-12-04T02:54:57.723Z,7.13
2022-12-04T02:57:32.548Z,7.05
2022-12-04T03:00:01.565Z,6.97
2022-12-04T03:02:53.483Z,6.95
2022-12-04T03:05:52.398Z,6.90
2022-12-04T03:08:27.925Z,6.91
2022-12-04T03:11:00.808Z,6.83
2022-12-04T03:13:57.467Z,6.78
2022-12-04T03:16:43.901Z,6.82
2022-12-04T03:19:19.909Z,6.83
2022-12-04T03:21:58.089Z,6.92
2022-12-04T03:24:27.821Z,6.89
2022-12-04T03:27:05.082Z,6.83
2022-12-04T03:30:01.731Z,6.76
2022-12-04T03:32:38.431Z,6.69
2022-12-04T03:35:49.824Z,6.67
2022-12-04T03:38:42.101Z,6.65
2022-12-04T03:41:38.085Z,6.65
2022-12-04T03:44:41.319Z,6.68
2022-12-04T03:47:29.414Z,6.64
2022-12-04T03:50:21.564Z,6.60
2022-12-04T03:53:14.204Z,6.58
2022-12-04T03:55:54.621Z,6.55
2022-12-04T03:58:30.927Z,6.59
2022-12-04T04:01:00.304Z,6.54
2022-12-04T04:03:44.992Z,6.58
2022-12-04T04:06:25.467Z,6.57
2022-12-04T04:09:01.289Z,6.54
2022-12-04T04:11:40.525Z,6.49
2022-12-04T04:14:31.877Z,6.47
2022-12-04T04:17:24.353Z,6.46
2022-12-04T04:20:26.490Z,6.58
2022-12-04T04:23:16.980Z,6.68
2022-12-04T04:25:47.406Z,6.72
2022-12-04T04:28:40.325Z,6.79
2022-12-04T04:31:17.455Z,6.72
2022-12-04T04:34:13.782Z,6.70
2022-12-04T04:36:53.648Z,6.64
2022-12-04T04:39:48.899Z,6.57
2022-12-04T04:42:30.015Z,6.61
2022-12-04T04:45:08.996Z,6.62
2022-12-04T04:47:52.695Z,6.63
2022-12-04T04:50:21.784Z,6.64
2022-12-04T04:53:03.858Z,6.67
2022-12-04T04:55:34.623Z,6.71
2022-12-04T04:58:13.681Z,6.78
2022-12-04T05:01:03.400Z,6.80
2022-12-04T05:03:32.646Z,6.84
2022-12-04T05:06:00.389Z,6.86
2022-12-04T05:08:28.671Z,6.94
2022-12-04T05:10:56.585Z,6.98
2022-12-04T05:13:25.070Z,7.02
2022-12-04T05:16:06.016Z,7.13
2022-12-04T05:18:35.344Z,7.22
2022-12-04T05:21:19.394Z,7.38
2022-12-04T05:23:47.209Z,7.41
2022-12-04T05:26:14.652Z,7.46
2022-12-04T05:28:42.524Z,7.48
2022-12-04T05:31:10.214Z,7.52
2022-12-04T05:33:38.171Z,7.47
2022-12-04T05:36:09.702Z,7.38
2022-12-04T05:38:38.039Z,7.35
2022-12-04T05:41:07.114Z,7.38
2022-12-04T05:43:35.605Z,7.27
2022-12-04T05:46:08.865Z,7.22
2022-12-04T05:48:37.101Z,7.20
2022-12-04T05:51:10.566Z,7.31
2022-12-04T05:53:39.232Z,7.36
2022-12-04T05:56:08.023Z,7.42
2022-12-04T05:58:37.469Z,7.45
2022-12-04T06:01:19.332Z,7.39
2022-12-04T06:03:47.309Z,7.29
2022-12-04T06:06:23.259Z,7.35
2022-12-04T06:08:55.065Z,7.36
2022-12-04T06:11:26.704Z,7.31
2022-12-04T06:13:55.150Z,7.24
2022-12-04T06:16:26.733Z,7.27
2022-12-04T06:19:01.675Z,7.30
2022-12-04T06:21:32.242Z,7.33
2022-12-04T06:24:00.236Z,7.39
2022-12-04T06:26:28.131Z,7.40
2022-12-04T06:28:58.840Z,7.39
2022-12-04T06:31:29.812Z,7.40
2022-12-04T06:33:58.977Z,7.37
2022-12-04T06:36:26.659Z,7.37
2022-12-04T06:38:56.910Z,7.44
2022-12-04T06:41:26.606Z,7.38
2022-12-04T06:43:55.278Z,7.45
2022-12-04T06:46:30.416Z,7.48
2022-12-04T06:49:00.537Z,7.44
2022-12-04T06:51:35.655Z,7.45
2022-12-04T06:54:04.495Z,7.52
2022-12-04T06:56:33.932Z,7.56
2022-12-04T06:59:04.030Z,7.60
2022-12-04T07:01:34.436Z,7.66
2022-12-04T07:04:04.444Z,7.68
2022-12-04T07:06:38.944Z,7.67
2022-12-04T07:09:17.374Z,7.68
2022-12-04T07:11:46.158Z,7.76
2022-12-04T07:14:14.808Z,7.82
2022-12-04T07:16:43.004Z,7.89
2022-12-04T07:19:13.894Z,8.02
2022-12-04T07:21:43.173Z,8.07
2022-12-04T07:24:16.918Z,8.10
2022-12-04T07:26:45.229Z,8.14
2022-12-04T07:29:13.542Z,8.17
2022-12-04T07:31:41.388Z,8.18
2022-12-04T07:34:09.369Z,8.18
2022-12-04T07:36:37.023Z,8.27
2022-12-04T07:39:04.957Z,8.31
2022-12-04T07:41:32.705Z,8.36
2022-12-04T07:44:07.326Z,8.40
2022-12-04T07:46:35.792Z,8.46
2022-12-04T07:49:03.750Z,8.45
2022-12-04T07:51:31.408Z,8.54
2022-12-04T07:54:03.225Z,8.55
2022-12-04T07:56:33.495Z,8.54
2022-12-04T07:59:02.458Z,8.55
2022-12-04T08:01:31.198Z,8.56
2022-12-04T08:04:01.112Z,8.66
2022-12-04T08:06:32.391Z,8.71
2022-12-04T08:09:04.799Z,8.82
2022-12-04T08:11:35.725Z,8.89
2022-12-04T08:14:06.187Z,8.96
2022-12-04T08:16:34.143Z,9.03
2022-12-04T08:19:02.200Z,9.14
2022-12-04T08:21:32.015Z,9.17
2022-12-04T08:24:01.980Z,9.14
2022-12-04T08:26:31.690Z,9.12
2022-12-04T08:29:03.950Z,9.18
2022-12-04T08:31:34.669Z,9.21
2022-12-04T08:34:06.394Z,9.17
2022-12-04T08:36:35.212Z,9.16
2022-12-04T08:39:03.789Z,9.07
2022-12-04T08:41:31.466Z,9.04
2022-12-04T08:43:59.696Z,9.08
2022-12-04T08:46:28.966Z,9.15
2022-12-04T08:48:56.857Z,9.18
2022-12-04T08:51:29.528Z,9.18
2022-12-04T08:54:05.445Z,9.23
2022-12-04T08:56:34.723Z,9.19
2022-12-04T08:59:02.962Z,9.09
2022-12-04T09:01:31.771Z,9.02
2022-12-04T09:04:00.908Z,9.02
2022-12-04T09:06:29.841Z,9.11
2022-12-04T09:08:58.174Z,9.13
2022-12-04T09:11:28.408Z,9.20
2022-12-04T09:13:56.492Z,9.25
2022-12-04T09:16:25.863Z,9.28
2022-12-04T09:18:55.709Z,9.25
2022-12-04T09:21:25.119Z,9.28
2022-12-04T09:23:52.973Z,9.28
2022-12-04T09:26:33.136Z,9.29
2022-12-04T09:29:04.124Z,9.29
2022-12-04T09:31:33.139Z,9.32
2022-12-04T09:34:02.142Z,9.49
2022-12-04T09:36:30.498Z,9.56
2022-12-04T09:38:58.987Z,9.67
2022-12-04T09:41:36.419Z,9.71
2022-12-04T09:44:11.162Z,9.73
2022-12-04T09:46:51.376Z,9.73
2022-12-04T09:49:45.718Z,9.79
2022-12-04T09:52:56.262Z,9.82
2022-12-04T09:55:47.655Z,9.85
2022-12-04T09:58:28.586Z,9.97
2022-12-04T10:00:58.670Z,10.07
2022-12-04T10:03:30.564Z,10.11
2022-12-04T10:06:27.087Z,10.20
2022-12-04T10:09:26.674Z,10.26
2022-12-04T10:12:18.389Z,10.31
2022-12-04T10:15:22.313Z,10.34
2022-12-04T10:17:59.639Z,10.42
2022-12-04T10:20:52.115Z,10.62
2022-12-04T10:23:41.499Z,10.71
2022-12-04T10:26:20.342Z,10.77
2022-12-04T10:29:14.724Z,10.91
2022-12-04T10:31:46.703Z,10.94
2022-12-04T10:34:26.634Z,10.93
2022-12-04T10:36:58.863Z,10.88
2022-12-04T10:39:36.727Z,10.81
2022-12-04T10:42:19.444Z,10.70
2022-12-04T10:44:47.789Z,10.61
2022-12-04T10:47:15.591Z,10.57
2022-12-04T10:49:43.969Z,10.48
2022-12-04T10:52:15.342Z,10.48
2022-12-04T10:54:57.944Z,10.46
2022-12-04T10:57:42.099Z,10.47
2022-12-04T11:00:36.014Z,10.46
2022-12-04T11:03:22.634Z,10.54
2022-12-04T11:06:01.866Z,10.62
2022-12-04T11:08:49.479Z,10.65
2022-12-04T11:11:31.499Z,10.69
2022-12-04T11:14:28.824Z,10.74
2022-12-04T11:17:06.571Z,10.81
2022-12-04T11:19:36.518Z,10.80
2022-12-04T11:22:14.800Z,10.71
2022-12-04T11:24:49.487Z,10.64
2022-12-04T11:27:29.245Z,10.61
2022-12-04T11:29:58.473Z,10.59
2022-12-04T11:32:32.073Z,10.57
2022-12-04T11:35:14.500Z,10.52
2022-12-04T11:37:45.445Z,10.44
2022-12-04T11:40:20.120Z,10.42
2022-12-04T11:43:12.472Z,10.37
2022-12-04T11:45:40.638Z,10.30
2022-12-04T11:48:18.335Z,10.29
2022-12-04T11:51:23.849Z,10.26
2022-12-04T11:54:09.574Z,10.21
2022-12-04T11:56:58.698Z,10.23
2022-12-04T11:59:47.582Z,10.22
2022-12-04T12:02:42.047Z,10.14
2022-12-04T12:05:32.313Z,10.07
2022-12-04T12:08:38.495Z,10.10
2022-12-04T12:11:32.059Z,10.03
2022-12-04T12:14:25.107Z,9.99
2022-12-04T12:17:24.400Z,9.91
2022-12-04T12:20:04.884Z,9.80
2022-12-04T12:22:57.067Z,9.61
2022-12-04T12:25:52.354Z,9.50
2022-12-04T12:28:52.686Z,9.47
2022-12-04T12:32:16.707Z,9.44
2022-12-04T12:34:46.547Z,9.38
2022-12-04T12:37:44.271Z,9.27
2022-12-04T12:40:27.366Z,9.22
2022-12-04T12:43:11.247Z,9.22
2022-12-04T12:45:59.012Z,9.22
2022-12-04T12:48:38.930Z,9.33
2022-12-04T12:51:47.658Z,9.42
2022-12-04T12:54:57.373Z,9.45
2022-12-04T12:57:46.606Z,9.40
2022-12-04T13:00:18.744Z,9.38
2022-12-04T13:03:35.868Z,9.35
2022-12-04T13:06:15.410Z,9.31
2022-12-04T13:09:16.918Z,9.30
2022-12-04T13:11:49.131Z,9.32
2022-12-04T13:14:17.627Z,9.35
2022-12-04T13:16:54.224Z,9.39
2022-12-04T13:19:44.446Z,9.42
2022-12-04T13:22:46.998Z,9.42
2022-12-04T13:25:44.611Z,9.38
2022-12-04T13:28:31.597Z,9.40
2022-12-04T13:31:45.488Z,9.44
2022-12-04T13:34:23.795Z,9.49
2022-12-04T13:37:05.238Z,9.50
2022-12-04T13:40:20.501Z,9.60
2022-12-04T13:42:49.370Z,9.69
2022-12-04T13:45:46.531Z,9.79
2022-12-04T13:48:26.414Z,9.85
2022-12-04T13:51:21.390Z,9.86
2022-12-04T13:54:03.738Z,9.82
2022-12-04T13:56:31.823Z,9.81
2022-12-04T13:59:32.575Z,9.78
2022-12-04T14:02:35.361Z,9.74
2022-12-04T14:05:12.027Z,9.75
2022-12-04T14:07:44.566Z,9.80
2022-12-04T14:10:15.117Z,9.86
2022-12-04T14:12:50.134Z,9.80
2022-12-04T14:15:31.420Z,9.78
2022-12-04T14:18:17.728Z,9.77
2022-12-04T14:20:56.838Z,9.79
2022-12-04T14:23:41.828Z,9.86
2022-12-04T14:27:10.154Z,9.95
2022-12-04T14:29:30.139Z,9.93
2022-12-04T14:32:10.437Z,9.89
2022-12-04T14:34:38.705Z,9.90
2022-12-04T14:37:17.528Z,9.90
2022-12-04T14:39:47.035Z,9.89
2022-12-04T14:42:17.686Z,9.80
2022-12-04T14:44:51.282Z,9.74
2022-12-04T14:48:08.515Z,9.59
2022-12-04T14:50:54.025Z,9.42
2022-12-04T14:54:36.391Z,9.33
2022-12-04T14:57:42.264Z,9.21
2022-12-04T15:00:22.920Z,9.14
2022-12-04T15:02:58.666Z,9.16
2022-12-04T15:05:32.329Z,9.16
2022-12-04T15:08:05.275Z,9.18
2022-12-04T15:10:53.611Z,9.11
2022-12-04T15:13:33.743Z,9.06
2022-12-04T15:16:18.106Z,9.00
2022-12-04T15:19:00.868Z,9.00
2022-12-04T15:21:40.660Z,8.98
2022-12-04T15:24:19.590Z,8.91
2022-12-04T15:27:32.694Z,8.75
2022-12-04T15:30:03.348Z,8.78
2022-12-04T15:32:32.616Z,8.88
2022-12-04T15:35:09.304Z,8.94
2022-12-04T15:37:37.849Z,8.93
2022-12-04T15:40:18.725Z,8.90
2022-12-04T15:42:46.846Z,8.89
2022-12-04T15:45:14.321Z,8.84
2022-12-04T15:47:42.117Z,8.87
2022-12-04T15:50:31.375Z,8.83
2022-12-04T15:53:01.921Z,8.83
2022-12-04T15:55:39.870Z,8.79
2022-12-04T15:58:31.739Z,8.61
2022-12-04T16:01:12.009Z,8.61
2022-12-04T16:03:43.125Z,8.62
2022-12-04T16:06:32.457Z,8.53
2022-12-04T16:09:18.162Z,8.50
2022-12-04T16:11:46.550Z,8.50
2022-12-04T16:14:18.979Z,8.52
2022-12-04T16:16:50.563Z,8.55
2022-12-04T16:19:29.026Z,8.61
2022-12-04T16:21:56.992Z,8.65
2022-12-04T16:24:25.767Z,8.77
2022-12-04T16:26:55.564Z,8.79
2022-12-04T16:29:24.784Z,8.77
2022-12-04T16:31:52.639Z,8.70
2022-12-04T16:34:21.286Z,8.68
2022-12-04T16:36:48.898Z,8.72
2022-12-04T16:39:16.850Z,8.66
2022-12-04T16:41:44.451Z,8.66
2022-12-04T16:44:16.926Z,8.69
2022-12-04T16:46:45.285Z,8.76
2022-12-04T16:49:13.812Z,8.73
2022-12-04T16:51:51.238Z,8.69
2022-12-04T16:54:19.778Z,8.63
2022-12-04T16:56:47.726Z,8.66
2022-12-04T16:59:15.757Z,8.68
2022-12-04T17:01:49.487Z,8.69
2022-12-04T17:04:18.560Z,8.66
2022-12-04T17:06:46.759Z,8.66
2022-12-04T17:09:16.483Z,8.65
2022-12-04T17:11:44.856Z,8.60
2022-12-04T17:14:13.119Z,8.55
2022-12-04T17:16:44.025Z,8.49
2022-12-04T17:19:12.993Z,8.46
2022-12-04T17:21:41.681Z,8.48
2022-12-04T17:24:09.719Z,8.58
2022-12-04T17:26:37.439Z,8.55
2022-12-04T17:29:05.450Z,8.55
2022-12-04T17:31:33.168Z,8.57
2022-12-04T17:34:01.176Z,8.54
2022-12-04T17:36:28.871Z,8.50
2022-12-04T17:38:59.557Z,8.43
2022-12-04T17:41:27.758Z,8.44
2022-12-04T17:43:55.618Z,8.46
2022-12-04T17:46:24.700Z,8.54
2022-12-04T17:48:52.551Z,8.56
2022-12-04T17:51:23.474Z,8.61
2022-12-04T17:53:52.313Z,8.64
2022-12-04T17:56:23.216Z,8.63
2022-12-04T17:58:51.779Z,8.61
2022-12-04T18:01:23.219Z,8.53
2022-12-04T18:04:00.480Z,8.46
2022-12-04T18:06:32.703Z,8.48
2022-12-04T18:09:02.121Z,8.51
2022-12-04T18:11:32.549Z,8.43
2022-12-04T18:14:11.742Z,8.37
2022-12-04T18:16:44.921Z,8.34
2022-12-04T18:19:14.600Z,8.33
2022-12-04T18:21:42.307Z,8.39
2022-12-04T18:24:10.536Z,8.47
2022-12-04T18:26:41.988Z,8.53
2022-12-04T18:29:13.889Z,8.61
2022-12-04T18:31:42.236Z,8.61
2022-12-04T18:34:11.739Z,8.62
2022-12-04T18:36:42.198Z,8.64
2022-12-04T18:39:16.355Z,8.73
2022-12-04T18:41:44.393Z,8.80
2022-12-04T18:44:13.122Z,8.92
2022-12-04T18:46:41.546Z,8.94
2022-12-04T18:49:11.060Z,8.96
2022-12-04T18:51:50.129Z,8.99
2022-12-04T18:54:22.449Z,9.01
2022-12-04T18:56:50.633Z,8.95
2022-12-04T18:59:25.685Z,8.86
2022-12-04T19:01:54.247Z,8.90
2022-12-04T19:04:24.875Z,8.90
2022-12-04T19:06:56.132Z,8.84
2022-12-04T19:10:08.915Z,8.83
2022-12-04T19:12:17.198Z,8.81
2022-12-04T19:14:45.164Z,8.79
2022-12-04T19:17:13.326Z,8.76
2022-12-04T19:19:41.609Z,8.74
2022-12-04T19:22:09.553Z,8.74
2022-12-04T19:24:37.581Z,8.79
2022-12-04T19:27:11.222Z,8.87
2022-12-04T19:29:43.020Z,9.07
2022-12-04T19:32:11.613Z,9.12
2022-12-04T19:34:40.239Z,9.05
2022-12-04T19:37:08.331Z,9.07
2022-12-04T19:39:36.696Z,9.17
2022-12-04T19:42:04.675Z,9.21
2022-12-04T19:44:48.518Z,9.20
2022-12-04T19:47:17.961Z,9.20
2022-12-04T19:49:46.657Z,9.28
2022-12-04T19:52:14.847Z,9.37
2022-12-04T19:54:42.843Z,9.36
2022-12-04T19:57:10.614Z,9.32
2022-12-04T19:59:43.095Z,9.26
2022-12-04T20:02:14.427Z,9.23
2022-12-04T20:04:43.296Z,9.21
2022-12-04T20:07:11.075Z,9.20
2022-12-04T20:09:39.022Z,9.18
2022-12-04T20:12:07.131Z,9.13
2022-12-04T20:14:35.224Z,9.10
2022-12-04T20:17:04.111Z,9.03
2022-12-04T20:19:32.533Z,8.97
2022-12-04T20:22:00.244Z,8.98
2022-12-04T20:24:28.479Z,8.97
2022-12-04T20:26:56.107Z,9.02
2022-12-04T20:29:24.213Z,8.98
2022-12-04T20:31:51.777Z,9.02
2022-12-04T20:34:19.983Z,8.96
2022-12-04T20:36:49.297Z,8.90
2022-12-04T20:39:36.053Z,8.89
2022-12-04T20:42:03.851Z,8.88
2022-12-04T20:44:31.861Z,8.90
2022-12-04T20:46:59.458Z,8.91
2022-12-04T20:49:27.349Z,8.96
2022-12-04T20:51:54.930Z,9.00
2022-12-04T20:54:23.436Z,8.97
2022-12-04T20:56:54.082Z,8.91
2022-12-04T20:59:25.273Z,8.82
2022-12-04T21:01:53.210Z,8.82
2022-12-04T21:04:22.038Z,8.86
2022-12-04T21:06:50.330Z,8.88
2022-12-04T21:09:22.396Z,8.82
2022-12-04T21:11:55.886Z,8.82
2022-12-04T21:14:46.891Z,8.84
2022-12-04T21:17:20.764Z,8.76
2022-12-04T21:19:51.288Z,8.68
2022-12-04T21:22:20.030Z,8.64
2022-12-04T21:24:47.980Z,8.66
2022-12-04T21:27:20.649Z,8.73
2022-12-04T21:29:49.793Z,8.66
2022-12-04T21:32:19.340Z,8.59
2022-12-04T21:34:47.802Z,8.50
2022-12-04T21:37:15.575Z,8.43
2022-12-04T21:39:43.954Z,8.42
2022-12-04T21:42:30.072Z,8.35
2022-12-04T21:45:02.574Z,8.35
2022-12-04T21:47:31.886Z,8.33
2022-12-04T21:50:00.241Z,8.34
2022-12-04T21:52:28.132Z,8.36
2022-12-04T21:54:56.517Z,8.37
2022-12-04T21:57:24.350Z,8.34
2022-12-04T21:59:52.750Z,8.28
2022-12-04T22:02:21.424Z,8.27
2022-12-04T22:04:49.714Z,8.24
2022-12-04T22:07:17.706Z,8.24
2022-12-04T22:09:47.345Z,8.20
2022-12-04T22:12:41.183Z,8.16
2022-12-04T22:15:04.101Z,8.14
2022-12-04T22:17:31.736Z,8.09
2022-12-04T22:19:59.992Z,8.04
2022-12-04T22:22:27.674Z,8.07
2022-12-04T22:24:56.398Z,8.11
2022-12-04T22:27:24.080Z,8.12
2022-12-04T22:29:52.489Z,8.09
2022-12-04T22:32:20.331Z,8.04
2022-12-04T22:34:49.416Z,8.01
2022-12-04T22:37:17.297Z,7.97
2022-12-04T22:39:45.369Z,7.96
2022-12-04T22:42:13.734Z,7.92
2022-12-04T22:44:41.901Z,7.92
2022-12-04T22:47:09.766Z,7.90
2022-12-04T22:49:38.170Z,7.93
2022-12-04T22:52:05.972Z,8.03
2022-12-04T22:54:34.145Z,8.01
2022-12-04T22:57:02.007Z,7.97
2022-12-04T22:59:30.383Z,8.01
2022-12-04T23:02:00.173Z,8.06
2022-12-04T23:04:28.689Z,8.09
2022-12-04T23:06:56.388Z,8.11
2022-12-04T23:09:26.285Z,8.05
2022-12-04T23:11:55.500Z,8.03
2022-12-04T23:14:23.707Z,8.01
2022-12-04T23:16:51.773Z,7.91
2022-12-04T23:19:20.274Z,7.83
2022-12-04T23:21:55.146Z,7.85
2022-12-04T23:24:26.208Z,7.88
2022-12-04T23:26:53.975Z,7.90
2022-12-04T23:29:52.781Z,7.96
2022-12-04T23:32:09.773Z,7.98
2022-12-04T23:34:38.380Z,8.00
2022-12-04T23:37:06.055Z,8.01
2022-12-04T23:39:34.014Z,8.04
2022-12-04T23:42:01.781Z,8.05
2022-12-04T23:44:29.851Z,8.06
2022-12-04T23:46:57.436Z,8.06
2022-12-04T23:49:25.913Z,8.01
2022-12-04T23:51:53.687Z,7.99
2022-12-04T23:54:21.627Z,7.94
2022-12-04T23:56:49.331Z,7.89
2022-12-04T23:59:17.235Z,7.84
